sensor_id;sensor_type;location;lat;lon;timestamp;pressure;altitude;pressure_sealevel;temperature
79089;BMP280;68489;50.286;9.452;2023-03-21T00:00:22;97585.31;;;7.18
79089;BMP280;68489;50.286;9.452;2023-03-21T00:02:47;97575.91;;;7.17
79089;BMP280;68489;50.286;9.452;2023-03-21T00:05:13;97575.53;;;7.15
79089;BMP280;68489;50.286;9.452;2023-03-21T00:07:38;97569.44;;;7.18
79089;BMP280;68489;50.286;9.452;2023-03-21T00:10:04;97562.69;;;7.17
79089;BMP280;68489;50.286;9.452;2023-03-21T00:12:29;97560.41;;;7.16
79089;BMP280;68489;50.286;9.452;2023-03-21T00:14:59;97570.38;;;7.08
79089;BMP280;68489;50.286;9.452;2023-03-21T00:17:29;97565.53;;;7.03
79089;BMP280;68489;50.286;9.452;2023-03-21T00:20:00;97556.19;;;6.99
79089;BMP280;68489;50.286;9.452;2023-03-21T00:22:26;97561.53;;;6.95
79089;BMP280;68489;50.286;9.452;2023-03-21T00:24:55;97554.78;;;6.90
79089;BMP280;68489;50.286;9.452;2023-03-21T00:27:20;97554.47;;;6.88
79089;BMP280;68489;50.286;9.452;2023-03-21T00:29:46;97555.63;;;6.84
79089;BMP280;68489;50.286;9.452;2023-03-21T00:32:16;97543.28;;;6.77
79089;BMP280;68489;50.286;9.452;2023-03-21T00:34:42;97549.38;;;6.74
79089;BMP280;68489;50.286;9.452;2023-03-21T00:37:08;97549.88;;;6.65
79089;BMP280;68489;50.286;9.452;2023-03-21T00:39:34;97550.25;;;6.64
79089;BMP280;68489;50.286;9.452;2023-03-21T00:42:00;97544.34;;;6.56
79089;BMP280;68489;50.286;9.452;2023-03-21T00:44:25;97544.69;;;6.58
79089;BMP280;68489;50.286;9.452;2023-03-21T00:46:51;97542.47;;;6.53
79089;BMP280;68489;50.286;9.452;2023-03-21T00:49:16;97536.91;;;6.47
79089;BMP280;68489;50.286;9.452;2023-03-21T00:51:42;97537.34;;;6.46
79089;BMP280;68489;50.286;9.452;2023-03-21T00:54:10;97534.28;;;6.47
79089;BMP280;68489;50.286;9.452;2023-03-21T00:56:35;97522.59;;;6.45
79089;BMP280;68489;50.286;9.452;2023-03-21T00:59:00;97530.59;;;6.41
79089;BMP280;68489;50.286;9.452;2023-03-21T01:01:26;97531.31;;;6.42
79089;BMP280;68489;50.286;9.452;2023-03-21T01:03:56;97527.56;;;6.39
79089;BMP280;68489;50.286;9.452;2023-03-21T01:06:31;97523.84;;;6.37
79089;BMP280;68489;50.286;9.452;2023-03-21T01:08:56;97521.59;;;6.35
79089;BMP280;68489;50.286;9.452;2023-03-21T01:11:25;97522.72;;;6.38
79089;BMP280;68489;50.286;9.452;2023-03-21T01:13:51;97519.28;;;6.41
79089;BMP280;68489;50.286;9.452;2023-03-21T01:16:17;97521.16;;;6.40
79089;BMP280;68489;50.286;9.452;2023-03-21T01:18:42;97512.03;;;6.45
79089;BMP280;68489;50.286;9.452;2023-03-21T01:21:10;97512.03;;;6.45
79089;BMP280;68489;50.286;9.452;2023-03-21T01:23:36;97519.50;;;6.50
79089;BMP280;68489;50.286;9.452;2023-03-21T01:26:01;97510.13;;;6.49
79089;BMP280;68489;50.286;9.452;2023-03-21T01:28:27;97503.28;;;6.52
79089;BMP280;68489;50.286;9.452;2023-03-21T01:30:53;97512.69;;;6.53
79089;BMP280;68489;50.286;9.452;2023-03-21T01:33:20;97520.56;;;6.56
79089;BMP280;68489;50.286;9.452;2023-03-21T01:35:46;97513.72;;;6.59
79089;BMP280;68489;50.286;9.452;2023-03-21T01:38:12;97513.69;;;6.62
79089;BMP280;68489;50.286;9.452;2023-03-21T01:40:39;97517.00;;;6.66
79089;BMP280;68489;50.286;9.452;2023-03-21T01:43:22;97517.31;;;6.72
79089;BMP280;68489;50.286;9.452;2023-03-21T01:46:21;97514.69;;;6.72
79089;BMP280;68489;50.286;9.452;2023-03-21T01:48:56;97507.75;;;6.78
79089;BMP280;68489;50.286;9.452;2023-03-21T01:51:23;97515.69;;;6.78
79089;BMP280;68489;50.286;9.452;2023-03-21T01:53:51;97507.19;;;6.90
79089;BMP280;68489;50.286;9.452;2023-03-21T01:56:24;97503.41;;;6.91
79089;BMP280;68489;50.286;9.452;2023-03-21T01:58:52;97506.47;;;6.90
79089;BMP280;68489;50.286;9.452;2023-03-21T02:01:20;97499.66;;;6.89
79089;BMP280;68489;50.286;9.452;2023-03-21T02:03:47;97497.72;;;6.93
79089;BMP280;68489;50.286;9.452;2023-03-21T02:06:19;97505.81;;;7.06
79089;BMP280;68489;50.286;9.452;2023-03-21T02:08:46;97495.38;;;6.99
79089;BMP280;68489;50.286;9.452;2023-03-21T02:11:12;97482.16;;;6.99
79089;BMP280;68489;50.286;9.452;2023-03-21T02:13:38;97493.47;;;6.99
79089;BMP280;68489;50.286;9.452;2023-03-21T02:16:17;97488.19;;;6.99
79089;BMP280;68489;50.286;9.452;2023-03-21T02:18:57;97483.25;;;7.01
79089;BMP280;68489;50.286;9.452;2023-03-21T02:27:24;97470.31;;;7.07
79089;BMP280;68489;50.286;9.452;2023-03-21T02:30:33;97468.78;;;7.06
79089;BMP280;68489;50.286;9.452;2023-03-21T02:33:06;97463.50;;;7.06
79089;BMP280;68489;50.286;9.452;2023-03-21T02:38:40;97467.88;;;7.16
79089;BMP280;68489;50.286;9.452;2023-03-21T02:41:21;97454.28;;;7.14
79089;BMP280;68489;50.286;9.452;2023-03-21T02:43:55;97458.13;;;7.13
79089;BMP280;68489;50.286;9.452;2023-03-21T02:46:29;97455.88;;;7.11
79089;BMP280;68489;50.286;9.452;2023-03-21T02:49:07;97457.41;;;7.09
79089;BMP280;68489;50.286;9.452;2023-03-21T02:51:36;97455.94;;;7.08
79089;BMP280;68489;50.286;9.452;2023-03-21T02:54:05;97457.03;;;7.10
79089;BMP280;68489;50.286;9.452;2023-03-21T02:56:32;97464.59;;;7.08
79089;BMP280;68489;50.286;9.452;2023-03-21T02:58:59;97456.00;;;7.04
79089;BMP280;68489;50.286;9.452;2023-03-21T03:01:24;97466.97;;;7.03
79089;BMP280;68489;50.286;9.452;2023-03-21T03:03:50;97461.63;;;7.06
79089;BMP280;68489;50.286;9.452;2023-03-21T03:06:18;97457.13;;;7.03
79089;BMP280;68489;50.286;9.452;2023-03-21T03:09:01;97453.44;;;7.01
79089;BMP280;68489;50.286;9.452;2023-03-21T03:11:38;97445.34;;;7.08
79089;BMP280;68489;50.286;9.452;2023-03-21T03:14:22;97445.00;;;7.06
79089;BMP280;68489;50.286;9.452;2023-03-21T03:17:16;97449.50;;;7.09
79089;BMP280;68489;50.286;9.452;2023-03-21T03:19:59;97442.72;;;7.08
79089;BMP280;68489;50.286;9.452;2023-03-21T03:22:39;97444.16;;;7.12
79089;BMP280;68489;50.286;9.452;2023-03-21T03:25:08;97443.47;;;7.08
79089;BMP280;68489;50.286;9.452;2023-03-21T03:27:40;97446.97;;;7.02
79089;BMP280;68489;50.286;9.452;2023-03-21T03:30:08;97444.31;;;7.02
79089;BMP280;68489;50.286;9.452;2023-03-21T03:32:41;97445.16;;;6.99
79089;BMP280;68489;50.286;9.452;2023-03-21T03:35:10;97447.81;;;6.99
79089;BMP280;68489;50.286;9.452;2023-03-21T03:37:39;97451.56;;;6.98
79089;BMP280;68489;50.286;9.452;2023-03-21T03:40:07;97458.03;;;6.97
79089;BMP280;68489;50.286;9.452;2023-03-21T03:42:45;97450.84;;;6.97
79089;BMP280;68489;50.286;9.452;2023-03-21T03:45:12;97453.75;;;7.03
79089;BMP280;68489;50.286;9.452;2023-03-21T03:47:53;97450.03;;;7.00
79089;BMP280;68489;50.286;9.452;2023-03-21T03:50:28;97444.75;;;7.00
79089;BMP280;68489;50.286;9.452;2023-03-21T03:53:04;97450.03;;;7.00
79089;BMP280;68489;50.286;9.452;2023-03-21T03:55:31;97444.41;;;6.98
79089;BMP280;68489;50.286;9.452;2023-03-21T03:57:59;97443.25;;;6.99
79089;BMP280;68489;50.286;9.452;2023-03-21T04:00:24;97440.69;;;6.95
79089;BMP280;68489;50.286;9.452;2023-03-21T04:02:52;97441.06;;;6.94
79089;BMP280;68489;50.286;9.452;2023-03-21T04:05:18;97435.78;;;6.94
79089;BMP280;68489;50.286;9.452;2023-03-21T04:07:46;97440.38;;;6.90
79089;BMP280;68489;50.286;9.452;2023-03-21T04:10:13;97438.41;;;6.94
79089;BMP280;68489;50.286;9.452;2023-03-21T04:12:38;97436.22;;;6.89
79089;BMP280;68489;50.286;9.452;2023-03-21T04:15:04;97443.50;;;6.85
79089;BMP280;68489;50.286;9.452;2023-03-21T04:17:29;97448.03;;;6.84
79089;BMP280;68489;50.286;9.452;2023-03-21T04:19:57;97440.13;;;6.84
79089;BMP280;68489;50.286;9.452;2023-03-21T04:22:22;97438.56;;;6.87
79089;BMP280;68489;50.286;9.452;2023-03-21T04:24:48;97439.63;;;6.89
79089;BMP280;68489;50.286;9.452;2023-03-21T04:27:13;97439.22;;;6.91
79089;BMP280;68489;50.286;9.452;2023-03-21T04:29:39;97440.78;;;6.88
79089;BMP280;68489;50.286;9.452;2023-03-21T04:32:04;97430.09;;;6.95
79089;BMP280;68489;50.286;9.452;2023-03-21T04:34:30;97431.19;;;6.98
79089;BMP280;68489;50.286;9.452;2023-03-21T04:36:55;97433.06;;;6.98
79089;BMP280;68489;50.286;9.452;2023-03-21T04:39:21;97426.25;;;7.00
79089;BMP280;68489;50.286;9.452;2023-03-21T04:41:46;97437.50;;;7.04
79089;BMP280;68489;50.286;9.452;2023-03-21T04:44:14;97432.94;;;7.05
79089;BMP280;68489;50.286;9.452;2023-03-21T04:46:39;97433.75;;;7.02
79089;BMP280;68489;50.286;9.452;2023-03-21T04:49:05;97433.75;;;7.02
79089;BMP280;68489;50.286;9.452;2023-03-21T04:51:31;97432.28;;;7.01
79089;BMP280;68489;50.286;9.452;2023-03-21T04:53:57;97442.41;;;7.02
79089;BMP280;68489;50.286;9.452;2023-03-21T04:56:26;97430.31;;;7.05
79089;BMP280;68489;50.286;9.452;2023-03-21T04:59:02;97427.31;;;7.03
79089;BMP280;68489;50.286;9.452;2023-03-21T05:01:29;97430.69;;;7.03
79089;BMP280;68489;50.286;9.452;2023-03-21T05:03:58;97424.28;;;7.04
79089;BMP280;68489;50.286;9.452;2023-03-21T05:06:24;97419.78;;;7.01
79089;BMP280;68489;50.286;9.452;2023-03-21T05:08:50;97425.81;;;7.02
79089;BMP280;68489;50.286;9.452;2023-03-21T05:11:15;97427.66;;;7.05
79089;BMP280;68489;50.286;9.452;2023-03-21T05:13:40;97435.59;;;7.05
79089;BMP280;68489;50.286;9.452;2023-03-21T05:16:06;97423.16;;;7.02
79089;BMP280;68489;50.286;9.452;2023-03-21T05:18:31;97433.00;;;7.01
79089;BMP280;68489;50.286;9.452;2023-03-21T05:20:58;97429.66;;;7.01
79089;BMP280;68489;50.286;9.452;2023-03-21T05:23:24;97430.84;;;6.96
79089;BMP280;68489;50.286;9.452;2023-03-21T05:25:49;97425.56;;;6.96
79089;BMP280;68489;50.286;9.452;2023-03-21T05:28:15;97416.47;;;6.97
79089;BMP280;68489;50.286;9.452;2023-03-21T05:30:45;97425.56;;;6.96
79089;BMP280;68489;50.286;9.452;2023-03-21T05:33:11;97419.53;;;6.95
79089;BMP280;68489;50.286;9.452;2023-03-21T05:35:36;97421.38;;;6.99
79089;BMP280;68489;50.286;9.452;2023-03-21T05:38:01;97427.78;;;6.98
79089;BMP280;68489;50.286;9.452;2023-03-21T05:40:27;97428.47;;;7.02
79089;BMP280;68489;50.286;9.452;2023-03-21T05:42:52;97430.31;;;7.05
79089;BMP280;68489;50.286;9.452;2023-03-21T05:45:17;97430.66;;;7.07
79089;BMP280;68489;50.286;9.452;2023-03-21T05:47:42;97434.44;;;7.06
79089;BMP280;68489;50.286;9.452;2023-03-21T05:50:09;97422.38;;;7.05
79089;BMP280;68489;50.286;9.452;2023-03-21T05:52:35;97430.69;;;7.03
79089;BMP280;68489;50.286;9.452;2023-03-21T05:55:01;97426.50;;;7.06
79089;BMP280;68489;50.286;9.452;2023-03-21T05:57:26;97429.50;;;7.08
79089;BMP280;68489;50.286;9.452;2023-03-21T05:59:53;97427.56;;;7.12
79089;BMP280;68489;50.286;9.452;2023-03-21T06:02:18;97424.50;;;7.13
79089;BMP280;68489;50.286;9.452;2023-03-21T06:04:43;97421.38;;;7.18
79089;BMP280;68489;50.286;9.452;2023-03-21T06:07:08;97418.59;;;7.26
79089;BMP280;68489;50.286;9.452;2023-03-21T06:09:34;97415.06;;;7.32
79089;BMP280;68489;50.286;9.452;2023-03-21T06:11:59;97420.22;;;7.39
79089;BMP280;68489;50.286;9.452;2023-03-21T06:14:25;97412.13;;;7.47
79089;BMP280;68489;50.286;9.452;2023-03-21T06:16:50;97408.13;;;7.58
79089;BMP280;68489;50.286;9.452;2023-03-21T06:19:18;97409.53;;;7.63
79089;BMP280;68489;50.286;9.452;2023-03-21T06:21:43;97415.16;;;7.65
79089;BMP280;68489;50.286;9.452;2023-03-21T06:24:08;97414.00;;;7.66
79089;BMP280;68489;50.286;9.452;2023-03-21T06:26:34;97418.91;;;7.67
79089;BMP280;68489;50.286;9.452;2023-03-21T06:28:59;97419.63;;;7.68
79089;BMP280;68489;50.286;9.452;2023-03-21T06:31:25;97424.94;;;7.68
79089;BMP280;68489;50.286;9.452;2023-03-21T06:33:51;97416.81;;;7.75
79089;BMP280;68489;50.286;9.452;2023-03-21T06:36:16;97416.28;;;7.84
79089;BMP280;68489;50.286;9.452;2023-03-21T06:38:42;97414.78;;;7.99
79089;BMP280;68489;50.286;9.452;2023-03-21T06:41:07;97410.84;;;8.24
79089;BMP280;68489;50.286;9.452;2023-03-21T06:43:33;97411.09;;;8.46
79089;BMP280;68489;50.286;9.452;2023-03-21T06:45:59;97407.16;;;8.67
79089;BMP280;68489;50.286;9.452;2023-03-21T06:48:25;97416.13;;;8.85
79089;BMP280;68489;50.286;9.452;2023-03-21T06:50:51;97423.16;;;8.92
79089;BMP280;68489;50.286;9.452;2023-03-21T06:53:18;97420.13;;;9.06
79089;BMP280;68489;50.286;9.452;2023-03-21T06:55:50;97428.53;;;9.18
79089;BMP280;68489;50.286;9.452;2023-03-21T06:58:16;97430.00;;;9.19
79089;BMP280;68489;50.286;9.452;2023-03-21T07:00:42;97435.88;;;9.13
79089;BMP280;68489;50.286;9.452;2023-03-21T07:03:09;97445.50;;;9.07
79089;BMP280;68489;50.286;9.452;2023-03-21T07:05:35;97448.94;;;8.92
79089;BMP280;68489;50.286;9.452;2023-03-21T07:08:01;97444.03;;;8.90
79089;BMP280;68489;50.286;9.452;2023-03-21T07:10:26;97457.47;;;8.83
79089;BMP280;68489;50.286;9.452;2023-03-21T07:12:51;97447.94;;;8.85
79089;BMP280;68489;50.286;9.452;2023-03-21T07:15:17;97456.59;;;9.02
79089;BMP280;68489;50.286;9.452;2023-03-21T07:17:42;97455.03;;;9.05
79089;BMP280;68489;50.286;9.452;2023-03-21T07:20:08;97454.78;;;9.28
79089;BMP280;68489;50.286;9.452;2023-03-21T07:22:34;97457.06;;;9.43
79089;BMP280;68489;50.286;9.452;2023-03-21T07:25:00;97456.78;;;9.66
79089;BMP280;68489;50.286;9.452;2023-03-21T07:27:25;97455.81;;;9.73
79089;BMP280;68489;50.286;9.452;2023-03-21T07:29:50;97445.84;;;9.90
79089;BMP280;68489;50.286;9.452;2023-03-21T07:32:15;97448.06;;;9.91
79089;BMP280;68489;50.286;9.452;2023-03-21T07:34:41;97451.56;;;10.13
79089;BMP280;68489;50.286;9.452;2023-03-21T07:37:06;97452.09;;;10.08
79089;BMP280;68489;50.286;9.452;2023-03-21T07:39:31;97446.25;;;10.13
79089;BMP280;68489;50.286;9.452;2023-03-21T07:41:58;97444.63;;;10.29
79089;BMP280;68489;50.286;9.452;2023-03-21T07:44:24;97450.34;;;10.40
79089;BMP280;68489;50.286;9.452;2023-03-21T07:46:49;97446.41;;;10.45
79089;BMP280;68489;50.286;9.452;2023-03-21T07:49:15;97442.66;;;10.55
79089;BMP280;68489;50.286;9.452;2023-03-21T07:51:40;97447.88;;;10.80
79089;BMP280;68489;50.286;9.452;2023-03-21T07:54:05;97455.50;;;10.91
79089;BMP280;68489;50.286;9.452;2023-03-21T07:56:31;97455.59;;;11.09
79089;BMP280;68489;50.286;9.452;2023-03-21T07:58:56;97449.66;;;11.27
79089;BMP280;68489;50.286;9.452;2023-03-21T08:01:21;97443.41;;;11.43
79089;BMP280;68489;50.286;9.452;2023-03-21T08:03:47;97444.91;;;11.53
79089;BMP280;68489;50.286;9.452;2023-03-21T08:06:13;97447.03;;;11.68
79089;BMP280;68489;50.286;9.452;2023-03-21T08:08:39;97450.78;;;11.79
79089;BMP280;68489;50.286;9.452;2023-03-21T08:11:04;97449.69;;;12.08
79089;BMP280;68489;50.286;9.452;2023-03-21T08:13:30;97439.97;;;12.51
79089;BMP280;68489;50.286;9.452;2023-03-21T08:15:55;97445.72;;;12.49
79089;BMP280;68489;50.286;9.452;2023-03-21T08:18:21;97445.75;;;12.68
79089;BMP280;68489;50.286;9.452;2023-03-21T08:20:51;97442.13;;;13.07
79089;BMP280;68489;50.286;9.452;2023-03-21T08:23:17;97441.19;;;13.29
79089;BMP280;68489;50.286;9.452;2023-03-21T08:25:42;97445.81;;;13.61
79089;BMP280;68489;50.286;9.452;2023-03-21T08:28:07;97443.00;;;14.52
79089;BMP280;68489;50.286;9.452;2023-03-21T08:30:33;97452.41;;;14.47
79089;BMP280;68489;50.286;9.452;2023-03-21T08:32:58;97448.81;;;15.09
79089;BMP280;68489;50.286;9.452;2023-03-21T08:35:24;97446.78;;;15.34
79089;BMP280;68489;50.286;9.452;2023-03-21T08:37:50;97451.56;;;15.80
79089;BMP280;68489;50.286;9.452;2023-03-21T08:40:17;97440.41;;;16.53
79089;BMP280;68489;50.286;9.452;2023-03-21T08:42:43;97442.22;;;16.62
79089;BMP280;68489;50.286;9.452;2023-03-21T08:45:10;97435.56;;;16.83
79089;BMP280;68489;50.286;9.452;2023-03-21T08:47:36;97442.25;;;17.31
79089;BMP280;68489;50.286;9.452;2023-03-21T08:50:03;97437.59;;;17.26
79089;BMP280;68489;50.286;9.452;2023-03-21T08:52:30;97442.06;;;17.88
79089;BMP280;68489;50.286;9.452;2023-03-21T08:54:56;97441.06;;;17.86
79089;BMP280;68489;50.286;9.452;2023-03-21T08:57:21;97449.56;;;19.00
79089;BMP280;68489;50.286;9.452;2023-03-21T08:59:46;97436.50;;;19.32
79089;BMP280;68489;50.286;9.452;2023-03-21T09:02:15;97440.50;;;18.86
79089;BMP280;68489;50.286;9.452;2023-03-21T09:04:41;97434.16;;;18.78
79089;BMP280;68489;50.286;9.452;2023-03-21T09:07:07;97437.75;;;18.47
79089;BMP280;68489;50.286;9.452;2023-03-21T09:09:35;97431.16;;;17.60
79089;BMP280;68489;50.286;9.452;2023-03-21T09:12:01;97434.63;;;17.67
79089;BMP280;68489;50.286;9.452;2023-03-21T09:14:26;97431.91;;;18.32
79089;BMP280;68489;50.286;9.452;2023-03-21T09:16:52;97443.66;;;18.90
79089;BMP280;68489;50.286;9.452;2023-03-21T09:19:17;97431.97;;;19.68
79089;BMP280;68489;50.286;9.452;2023-03-21T09:21:42;97432.78;;;19.99
79089;BMP280;68489;50.286;9.452;2023-03-21T09:24:08;97437.84;;;20.55
79089;BMP280;68489;50.286;9.452;2023-03-21T09:26:33;97431.97;;;21.48
79089;BMP280;68489;50.286;9.452;2023-03-21T09:28:59;97434.03;;;21.42
79089;BMP280;68489;50.286;9.452;2023-03-21T09:31:25;97426.16;;;21.20
79089;BMP280;68489;50.286;9.452;2023-03-21T09:33:52;97432.16;;;20.88
79089;BMP280;68489;50.286;9.452;2023-03-21T09:36:19;97431.66;;;21.33
79089;BMP280;68489;50.286;9.452;2023-03-21T09:38:47;97423.09;;;21.53
79089;BMP280;68489;50.286;9.452;2023-03-21T09:44:33;97430.22;;;21.70
79089;BMP280;68489;50.286;9.452;2023-03-21T09:47:13;97427.72;;;21.53
79089;BMP280;68489;50.286;9.452;2023-03-21T09:49:47;97427.19;;;21.36
79089;BMP280;68489;50.286;9.452;2023-03-21T09:52:22;97424.75;;;21.57
79089;BMP280;68489;50.286;9.452;2023-03-21T09:54:48;97418.56;;;21.62
79089;BMP280;68489;50.286;9.452;2023-03-21T09:57:37;97424.44;;;21.60
79089;BMP280;68489;50.286;9.452;2023-03-21T10:00:06;97421.59;;;21.52
79089;BMP280;68489;50.286;9.452;2023-03-21T10:02:43;97421.09;;;20.86
79089;BMP280;68489;50.286;9.452;2023-03-21T10:05:24;97428.06;;;20.10
79089;BMP280;68489;50.286;9.452;2023-03-21T10:07:53;97425.47;;;19.41
79089;BMP280;68489;50.286;9.452;2023-03-21T10:10:24;97423.03;;;19.32
79089;BMP280;68489;50.286;9.452;2023-03-21T10:12:53;97421.84;;;18.15
79089;BMP280;68489;50.286;9.452;2023-03-21T10:15:20;97428.63;;;18.00
79089;BMP280;68489;50.286;9.452;2023-03-21T10:17:51;97420.84;;;18.07
79089;BMP280;68489;50.286;9.452;2023-03-21T10:20:22;97420.34;;;18.03
79089;BMP280;68489;50.286;9.452;2023-03-21T10:22:53;97421.97;;;17.73
79089;BMP280;68489;50.286;9.452;2023-03-21T10:25:21;97419.88;;;17.51
79089;BMP280;68489;50.286;9.452;2023-03-21T10:27:49;97431.97;;;17.72
79089;BMP280;68489;50.286;9.452;2023-03-21T10:30:41;97418.97;;;17.65
79089;BMP280;68489;50.286;9.452;2023-03-21T10:33:41;97420.00;;;17.30
79089;BMP280;68489;50.286;9.452;2023-03-21T10:36:10;97428.09;;;17.36
79089;BMP280;68489;50.286;9.452;2023-03-21T10:38:40;97420.66;;;17.20
79089;BMP280;68489;50.286;9.452;2023-03-21T10:41:09;97421.44;;;16.89
79089;BMP280;68489;50.286;9.452;2023-03-21T10:43:36;97429.56;;;16.68
79089;BMP280;68489;50.286;9.452;2023-03-21T10:46:12;97426.31;;;16.58
79089;BMP280;68489;50.286;9.452;2023-03-21T10:48:41;97417.16;;;16.19
79089;BMP280;68489;50.286;9.452;2023-03-21T10:51:14;97416.78;;;15.85
79089;BMP280;68489;50.286;9.452;2023-03-21T10:53:48;97425.44;;;15.39
79089;BMP280;68489;50.286;9.452;2023-03-21T10:56:15;97419.81;;;15.22
79089;BMP280;68489;50.286;9.452;2023-03-21T10:58:43;97423.00;;;15.06
79089;BMP280;68489;50.286;9.452;2023-03-21T11:01:13;97418.47;;;14.97
79089;BMP280;68489;50.286;9.452;2023-03-21T11:03:42;97421.13;;;14.97
79089;BMP280;68489;50.286;9.452;2023-03-21T11:08:48;97416.56;;;14.83
79089;BMP280;68489;50.286;9.452;2023-03-21T11:11:26;97420.84;;;14.51
79089;BMP280;68489;50.286;9.452;2023-03-21T11:13:57;97417.44;;;14.51
79089;BMP280;68489;50.286;9.452;2023-03-21T11:16:29;97422.59;;;14.39
79089;BMP280;68489;50.286;9.452;2023-03-21T11:19:31;97420.22;;;14.56
79089;BMP280;68489;50.286;9.452;2023-03-21T11:22:06;97416.16;;;14.76
79089;BMP280;68489;50.286;9.452;2023-03-21T11:24:32;97409.25;;;14.84
79089;BMP280;68489;50.286;9.452;2023-03-21T11:26:59;97407.53;;;15.16
79089;BMP280;68489;50.286;9.452;2023-03-21T11:32:25;97411.47;;;15.00
79089;BMP280;68489;50.286;9.452;2023-03-21T11:35:04;97403.13;;;14.68
79089;BMP280;68489;50.286;9.452;2023-03-21T11:40:21;97408.56;;;14.74
79089;BMP280;68489;50.286;9.452;2023-03-21T11:42:49;97406.50;;;14.78
79089;BMP280;68489;50.286;9.452;2023-03-21T11:45:22;97397.25;;;14.64
79089;BMP280;68489;50.286;9.452;2023-03-21T11:47:49;97401.41;;;14.65
79089;BMP280;68489;50.286;9.452;2023-03-21T11:50:37;97391.34;;;14.60
79089;BMP280;68489;50.286;9.452;2023-03-21T11:53:11;97394.91;;;14.57
79089;BMP280;68489;50.286;9.452;2023-03-21T11:58:40;97392.44;;;14.00
79089;BMP280;68489;50.286;9.452;2023-03-21T12:01:18;97382.81;;;13.93
79089;BMP280;68489;50.286;9.452;2023-03-21T12:04:06;97382.53;;;13.91
79089;BMP280;68489;50.286;9.452;2023-03-21T12:06:38;97382.69;;;13.88
79089;BMP280;68489;50.286;9.452;2023-03-21T12:12:03;97374.81;;;13.93
79089;BMP280;68489;50.286;9.452;2023-03-21T12:20:02;97379.53;;;13.99
79089;BMP280;68489;50.286;9.452;2023-03-21T12:22:55;97374.25;;;13.89
79089;BMP280;68489;50.286;9.452;2023-03-21T12:25:41;97368.25;;;13.94
79089;BMP280;68489;50.286;9.452;2023-03-21T12:33:56;97363.25;;;14.11
79089;BMP280;68489;50.286;9.452;2023-03-21T12:36:45;97365.72;;;14.00
79089;BMP280;68489;50.286;9.452;2023-03-21T12:39:31;97358.53;;;13.82
79089;BMP280;68489;50.286;9.452;2023-03-21T12:44:55;97357.97;;;13.54
79089;BMP280;68489;50.286;9.452;2023-03-21T12:47:25;97360.53;;;13.49
79089;BMP280;68489;50.286;9.452;2023-03-21T12:49:57;97359.28;;;13.35
79089;BMP280;68489;50.286;9.452;2023-03-21T12:52:36;97348.69;;;13.40
79089;BMP280;68489;50.286;9.452;2023-03-21T12:55:21;97349.59;;;13.37
79089;BMP280;68489;50.286;9.452;2023-03-21T12:58:08;97346.78;;;13.41
79089;BMP280;68489;50.286;9.452;2023-03-21T13:00:41;97348.88;;;13.37
79089;BMP280;68489;50.286;9.452;2023-03-21T13:03:15;97349.31;;;13.35
79089;BMP280;68489;50.286;9.452;2023-03-21T13:05:45;97351.50;;;13.46
79089;BMP280;68489;50.286;9.452;2023-03-21T13:08:23;97348.59;;;13.35
79089;BMP280;68489;50.286;9.452;2023-03-21T13:10:48;97344.50;;;13.49
79089;BMP280;68489;50.286;9.452;2023-03-21T13:13:33;97349.25;;;13.45
79089;BMP280;68489;50.286;9.452;2023-03-21T13:24:44;97333.53;;;13.47
79089;BMP280;68489;50.286;9.452;2023-03-21T13:26:51;97329.94;;;13.26
79089;BMP280;68489;50.286;9.452;2023-03-21T13:29:26;97324.56;;;13.35
79089;BMP280;68489;50.286;9.452;2023-03-21T13:31:54;97328.34;;;13.10
79089;BMP280;68489;50.286;9.452;2023-03-21T13:34:21;97328.81;;;13.08
79089;BMP280;68489;50.286;9.452;2023-03-21T13:36:49;97331.94;;;13.07
79089;BMP280;68489;50.286;9.452;2023-03-21T13:39:24;97325.28;;;13.02
79089;BMP280;68489;50.286;9.452;2023-03-21T13:41:50;97323.94;;;12.98
79089;BMP280;68489;50.286;9.452;2023-03-21T13:47:01;97318.53;;;12.83
79089;BMP280;68489;50.286;9.452;2023-03-21T13:49:35;97318.09;;;12.75
79089;BMP280;68489;50.286;9.452;2023-03-21T13:52:24;97319.03;;;12.63
79089;BMP280;68489;50.286;9.452;2023-03-21T13:54:51;97313.22;;;12.64
79089;BMP280;68489;50.286;9.452;2023-03-21T13:57:36;97312.06;;;12.65
79089;BMP280;68489;50.286;9.452;2023-03-21T14:02:51;97313.66;;;12.72
79089;BMP280;68489;50.286;9.452;2023-03-21T14:05:20;97316.06;;;12.61
79089;BMP280;68489;50.286;9.452;2023-03-21T14:07:47;97305.41;;;12.52
79089;BMP280;68489;50.286;9.452;2023-03-21T14:10:32;97307.03;;;12.49
79089;BMP280;68489;50.286;9.452;2023-03-21T14:12:58;97310.47;;;12.22
79089;BMP280;68489;50.286;9.452;2023-03-21T14:15:29;97308.28;;;12.11
79089;BMP280;68489;50.286;9.452;2023-03-21T14:18:00;97307.22;;;12.00
79089;BMP280;68489;50.286;9.452;2023-03-21T14:20:33;97304.56;;;12.00
79089;BMP280;68489;50.286;9.452;2023-03-21T14:23:06;97300.69;;;11.73
79089;BMP280;68489;50.286;9.452;2023-03-21T14:25:33;97303.81;;;11.72
79089;BMP280;68489;50.286;9.452;2023-03-21T14:28:02;97297.84;;;11.49
79089;BMP280;68489;50.286;9.452;2023-03-21T14:30:31;97300.22;;;11.38
79089;BMP280;68489;50.286;9.452;2023-03-21T14:32:59;97297.66;;;11.34
79089;BMP280;68489;50.286;9.452;2023-03-21T14:35:29;97289.06;;;11.21
79089;BMP280;68489;50.286;9.452;2023-03-21T14:37:59;97302.63;;;11.14
79089;BMP280;68489;50.286;9.452;2023-03-21T14:40:26;97291.06;;;11.08
79089;BMP280;68489;50.286;9.452;2023-03-21T14:42:52;97301.41;;;11.06
79089;BMP280;68489;50.286;9.452;2023-03-21T14:45:23;97295.38;;;11.05
79089;BMP280;68489;50.286;9.452;2023-03-21T14:47:57;97294.47;;;10.99
79089;BMP280;68489;50.286;9.452;2023-03-21T14:50:29;97293.06;;;10.85
79089;BMP280;68489;50.286;9.452;2023-03-21T14:52:55;97292.03;;;10.83
79089;BMP280;68489;50.286;9.452;2023-03-21T14:55:22;97284.13;;;10.79
79089;BMP280;68489;50.286;9.452;2023-03-21T14:57:48;97279.25;;;10.78
79089;BMP280;68489;50.286;9.452;2023-03-21T15:00:20;97281.59;;;10.76
79089;BMP280;68489;50.286;9.452;2023-03-21T15:02:46;97279.84;;;10.73
79089;BMP280;68489;50.286;9.452;2023-03-21T15:08:21;97273.19;;;10.46
79089;BMP280;68489;50.286;9.452;2023-03-21T15:10:57;97269.19;;;10.42
79089;BMP280;68489;50.286;9.452;2023-03-21T15:13:26;97265.28;;;10.33
79089;BMP280;68489;50.286;9.452;2023-03-21T15:15:52;97252.31;;;10.13
79089;BMP280;68489;50.286;9.452;2023-03-21T15:18:24;97247.47;;;10.21
79089;BMP280;68489;50.286;9.452;2023-03-21T15:20:51;97244.38;;;10.23
79089;BMP280;68489;50.286;9.452;2023-03-21T15:23:30;97249.28;;;10.24
79089;BMP280;68489;50.286;9.452;2023-03-21T15:25:56;97248.31;;;10.18